createdAt,value
2022-08-07T00:00:52.740Z,5.23
2022-08-07T00:03:22.961Z,5.17
2022-08-07T00:05:54.176Z,6.53
2022-08-07T00:08:23.448Z,5.60
2022-08-07T00:10:57.503Z,4.00
2022-08-07T00:13:27.190Z,6.00
2022-08-07T00:15:55.973Z,6.80
2022-08-07T00:18:26.407Z,8.77
2022-08-07T00:21:01.389Z,5.10
2022-08-07T00:23:30.563Z,6.40
2022-08-07T00:26:13.141Z,5.87
2022-08-07T00:28:56.534Z,6.90
2022-08-07T00:31:37.363Z,6.33
2022-08-07T00:34:08.957Z,4.77
2022-08-07T00:36:42.767Z,6.20
2022-08-07T00:39:12.780Z,6.77
2022-08-07T00:41:53.616Z,7.80
2022-08-07T00:44:29.609Z,5.90
2022-08-07T00:46:57.605Z,7.33
2022-08-07T00:50:20.891Z,8.47
2022-08-07T00:52:17.673Z,9.40
2022-08-07T00:54:53.882Z,6.27
2022-08-07T00:57:26.244Z,7.03
2022-08-07T00:59:54.941Z,10.63
2022-08-07T01:02:29.326Z,8.50
2022-08-07T01:04:58.820Z,6.77
2022-08-07T01:07:29.216Z,12.97
2022-08-07T01:10:06.145Z,11.57
2022-08-07T01:12:53.082Z,8.00
2022-08-07T01:15:23.359Z,6.10
2022-08-07T01:18:17.155Z,6.73
2022-08-07T01:20:59.385Z,7.97
2022-08-07T01:23:36.725Z,6.57
2022-08-07T01:26:12.043Z,6.27
2022-08-07T01:28:41.143Z,6.33
2022-08-07T01:31:15.428Z,7.60
2022-08-07T01:33:56.108Z,6.33
2022-08-07T01:36:33.938Z,11.10
2022-08-07T01:39:10.275Z,7.90
2022-08-07T01:41:40.740Z,8.77
2022-08-07T01:44:27.748Z,9.47
2022-08-07T01:46:56.292Z,9.30
2022-08-07T01:49:24.311Z,6.03
2022-08-07T01:52:01.939Z,8.57
2022-08-07T01:54:37.762Z,6.70
2022-08-07T01:57:08.862Z,8.73
2022-08-07T01:59:54.833Z,10.00
2022-08-07T02:03:05.681Z,8.17
2022-08-07T02:05:48.306Z,10.43
2022-08-07T02:08:23.714Z,9.50
2022-08-07T02:10:58.083Z,10.73
2022-08-07T02:13:58.087Z,8.33
2022-08-07T02:16:32.848Z,11.50
2022-08-07T02:19:05.477Z,8.13
2022-08-07T02:21:55.975Z,12.60
2022-08-07T02:24:26.349Z,8.33
2022-08-07T02:27:01.278Z,7.37
2022-08-07T02:29:31.411Z,12.03
2022-08-07T02:32:01.217Z,10.00
2022-08-07T02:34:31.132Z,9.13
2022-08-07T02:37:01.392Z,12.23
2022-08-07T02:39:42.844Z,13.67
2022-08-07T02:42:14.671Z,7.40
2022-08-07T02:44:48.265Z,12.43
2022-08-07T02:47:19.530Z,10.60
2022-08-07T02:49:59.028Z,9.57
2022-08-07T02:52:33.474Z,9.70
2022-08-07T02:55:09.782Z,11.80
2022-08-07T02:58:02.826Z,9.43
2022-08-07T03:00:36.132Z,10.13
2022-08-07T03:03:13.616Z,8.53
2022-08-07T03:05:51.991Z,12.53
2022-08-07T03:08:26.850Z,12.20
2022-08-07T03:10:59.035Z,10.83
2022-08-07T03:13:29.476Z,11.03
2022-08-07T03:16:07.608Z,9.93
2022-08-07T03:18:36.313Z,11.20
2022-08-07T03:21:08.935Z,11.57
2022-08-07T03:24:20.720Z,11.37
2022-08-07T03:26:32.265Z,10.23
2022-08-07T03:29:05.128Z,11.47
2022-08-07T03:31:42.804Z,9.63
2022-08-07T03:34:18.643Z,11.47
2022-08-07T03:36:53.718Z,10.00
2022-08-07T03:39:46.276Z,10.23
2022-08-07T03:42:12.737Z,11.97
2022-08-07T03:44:42.766Z,13.37
2022-08-07T03:47:16.298Z,13.67
2022-08-07T03:49:51.873Z,17.57
2022-08-07T03:52:26.374Z,10.07
2022-08-07T03:54:57.407Z,13.67
2022-08-07T03:58:32.675Z,10.23
2022-08-07T04:00:30.619Z,13.37
2022-08-07T04:03:03.871Z,11.60
2022-08-07T04:05:39.392Z,12.57
2022-08-07T04:08:11.389Z,10.27
2022-08-07T04:10:42.388Z,12.60
2022-08-07T04:13:15.289Z,15.53
2022-08-07T04:15:45.910Z,11.93
2022-08-07T04:18:57.785Z,14.60
2022-08-07T04:21:07.225Z,12.30
2022-08-07T04:23:43.348Z,16.27
2022-08-07T04:26:28.374Z,13.13
2022-08-07T04:28:58.510Z,12.93
2022-08-07T04:31:39.114Z,11.23
2022-08-07T04:34:17.333Z,14.50
2022-08-07T04:36:52.718Z,12.67
2022-08-07T04:39:25.788Z,16.60
2022-08-07T04:41:54.285Z,16.97
2022-08-07T04:44:22.624Z,15.27
2022-08-07T05:12:52.779Z,19.00
2022-08-07T05:15:25.466Z,19.07
2022-08-07T05:18:00.809Z,17.40
2022-08-07T05:29:08.674Z,19.40
2022-08-07T05:31:40.423Z,22.03
2022-08-07T05:34:18.106Z,18.13
2022-08-07T05:36:52.746Z,20.53
2022-08-07T05:40:05.603Z,21.57
2022-08-07T05:42:12.146Z,19.80
2022-08-07T05:44:53.025Z,19.53
2022-08-07T05:48:01.059Z,15.23
2022-08-07T05:50:20.469Z,17.20
2022-08-07T05:52:48.650Z,20.07
2022-08-07T05:55:16.992Z,19.30
2022-08-07T05:57:46.817Z,16.20
2022-08-07T06:00:17.996Z,19.03
2022-08-07T06:02:49.378Z,15.83
2022-08-07T06:05:20.433Z,18.57
2022-08-07T06:08:14.885Z,19.67
2022-08-07T06:10:45.875Z,19.60
2022-08-07T06:13:20.914Z,17.87
2022-08-07T06:16:13.491Z,16.30
2022-08-07T06:18:43.086Z,14.47
2022-08-07T06:22:16.400Z,12.90
2022-08-07T06:24:37.549Z,13.17
2022-08-07T06:26:49.667Z,18.37
2022-08-07T06:29:19.001Z,14.43
2022-08-07T06:31:50.481Z,15.83
2022-08-07T06:34:20.568Z,12.20
2022-08-07T06:36:52.146Z,14.20
2022-08-07T06:40:16.391Z,10.80
2022-08-07T06:42:12.806Z,11.30
2022-08-07T06:44:41.787Z,10.97
2022-08-07T06:47:12.257Z,13.87
2022-08-07T06:49:50.990Z,11.93
2022-08-07T06:52:31.654Z,18.27
2022-08-07T06:55:32.148Z,9.17
2022-08-07T06:57:57.466Z,8.43
2022-08-07T07:00:29.093Z,13.63
2022-08-07T07:03:01.183Z,11.63
2022-08-07T07:06:03.542Z,11.03
2022-08-07T07:08:31.013Z,13.53
2022-08-07T07:11:13.318Z,11.13
2022-08-07T07:13:57.986Z,8.47
2022-08-07T07:16:38.925Z,9.97
2022-08-07T07:19:55.087Z,6.73
2022-08-07T07:22:32.344Z,6.70
2022-08-07T07:25:14.275Z,6.83
2022-08-07T07:27:58.385Z,6.80
2022-08-07T07:30:38.489Z,6.80
2022-08-07T07:33:11.837Z,7.20
2022-08-07T07:36:04.585Z,8.13
2022-08-07T07:38:35.821Z,6.20
2022-08-07T07:41:08.656Z,5.43
2022-08-07T07:43:47.836Z,8.17
2022-08-07T07:46:36.834Z,5.87
2022-08-07T07:50:32.477Z,4.27
2022-08-07T07:52:12.950Z,7.10
2022-08-07T07:54:44.139Z,6.00
2022-08-07T07:57:51.518Z,6.80
2022-08-07T08:00:12.408Z,10.00
2022-08-07T08:03:04.841Z,5.53
2022-08-07T08:05:54.428Z,11.37
2022-08-07T08:08:34.960Z,5.83
2022-08-07T08:11:05.264Z,5.90
2022-08-07T08:13:53.331Z,7.00
2022-08-07T08:16:30.021Z,5.80
2022-08-07T08:19:09.957Z,7.10
2022-08-07T08:22:07.808Z,4.63
2022-08-07T08:25:04.519Z,5.37
2022-08-07T08:27:56.345Z,4.17
2022-08-07T08:30:26.882Z,4.43
2022-08-07T08:32:59.519Z,3.93
2022-08-07T08:35:39.515Z,4.10
2022-08-07T08:38:18.411Z,7.07
2022-08-07T08:40:57.264Z,4.33
2022-08-07T08:43:42.283Z,4.97
2022-08-07T08:46:20.404Z,4.70
2022-08-07T08:48:56.580Z,4.60
2022-08-07T08:52:12.839Z,3.83
2022-08-07T08:54:25.941Z,3.47
2022-08-07T08:56:58.644Z,4.00
2022-08-07T08:59:41.999Z,3.27
2022-08-07T09:02:36.498Z,3.50
2022-08-07T09:05:36.793Z,3.83
2022-08-07T09:08:24.218Z,3.23
2022-08-07T09:11:08.251Z,7.77
2022-08-07T09:13:44.434Z,4.40
2022-08-07T09:16:30.558Z,3.80
2022-08-07T09:19:51.354Z,6.77
2022-08-07T09:24:28.024Z,3.83
2022-08-07T09:25:17.197Z,4.18
2022-08-07T09:28:00.563Z,3.03
2022-08-07T09:30:44.237Z,4.22
2022-08-07T09:33:56.853Z,3.78
2022-08-07T09:36:35.901Z,3.85
2022-08-07T09:39:55.290Z,3.30
2022-08-07T09:42:22.946Z,4.32
2022-08-07T09:47:23.741Z,3.35
2022-08-07T09:48:15.290Z,2.78
2022-08-07T09:51:00.792Z,2.58
2022-08-07T09:53:41.330Z,4.30
2022-08-07T09:56:47.093Z,3.95
2022-08-07T10:00:00.989Z,2.28
2022-08-07T10:02:57.838Z,5.15
2022-08-07T10:06:04.454Z,3.83
2022-08-07T10:08:49.598Z,5.53
2022-08-07T10:12:01.427Z,4.32
2022-08-07T10:14:55.049Z,2.22
2022-08-07T10:18:01.387Z,6.47
2022-08-07T10:20:44.575Z,2.97
2022-08-07T10:24:05.194Z,4.45
2022-08-07T10:26:51.807Z,2.83
2022-08-07T10:29:51.515Z,3.25
2022-08-07T10:32:51.530Z,2.53
2022-08-07T10:35:55.837Z,2.38
2022-08-07T10:38:48.417Z,4.75
2022-08-07T10:41:51.985Z,4.68
2022-08-07T10:44:28.665Z,3.45
2022-08-07T10:47:27.159Z,3.60
2022-08-07T10:50:15.257Z,2.95
2022-08-07T10:52:54.238Z,4.45
2022-08-07T10:55:38.079Z,1.73
2022-08-07T10:58:33.360Z,2.33
2022-08-07T11:01:18.497Z,2.58
2022-08-07T11:04:16.595Z,1.73
2022-08-07T11:06:52.957Z,2.13
2022-08-07T11:10:07.161Z,1.92
2022-08-07T11:12:31.801Z,4.53
2022-08-07T11:15:14.754Z,2.03
2022-08-07T11:17:50.629Z,3.55
2022-08-07T11:20:27.478Z,1.50
2022-08-07T11:23:04.124Z,3.25
2022-08-07T11:25:48.217Z,4.72
2022-08-07T11:28:26.690Z,1.77
2022-08-07T11:31:13.830Z,5.43
2022-08-07T11:33:54.137Z,4.68
2022-08-07T11:36:40.610Z,3.67
2022-08-07T11:39:19.785Z,1.63
2022-08-07T11:42:02.421Z,4.03
2022-08-07T11:44:52.501Z,1.50
2022-08-07T11:47:56.450Z,2.25
2022-08-07T11:50:44.363Z,3.80
2022-08-07T11:53:38.112Z,3.42
2022-08-07T11:56:29.262Z,4.03
2022-08-07T12:00:10.137Z,1.65
2022-08-07T12:02:20.968Z,1.48
2022-08-07T12:05:09.183Z,3.08
2022-08-07T12:08:03.575Z,3.00
2022-08-07T12:10:41.912Z,3.97
2022-08-07T12:13:18.521Z,2.95
2022-08-07T12:16:06.705Z,2.75
2022-08-07T12:18:45.122Z,2.05
2022-08-07T12:22:35.683Z,3.55
2022-08-07T12:24:38.446Z,1.63
2022-08-07T12:27:14.879Z,1.20
2022-08-07T12:29:52.869Z,4.10
2022-08-07T12:32:31.108Z,2.33
2022-08-07T12:35:05.746Z,4.10
2022-08-07T12:38:09.333Z,4.65
2022-08-07T12:40:47.072Z,2.00
2022-08-07T12:44:02.791Z,1.40
2022-08-07T12:46:26.559Z,2.83
2022-08-07T12:49:10.141Z,2.65
2022-08-07T12:52:14.564Z,2.22
2022-08-07T12:54:54.628Z,1.60
2022-08-07T12:57:50.915Z,3.97
2022-08-07T13:00:20.901Z,1.85
2022-08-07T13:03:27.120Z,2.25
2022-08-07T13:06:27.325Z,4.32
2022-08-07T13:09:12.571Z,1.88
2022-08-07T13:12:10.405Z,4.13
2022-08-07T13:14:52.744Z,2.35
2022-08-07T13:17:40.075Z,1.70
2022-08-07T13:20:17.777Z,3.80
2022-08-07T13:22:52.463Z,6.25
2022-08-07T13:25:30.700Z,3.60
2022-08-07T13:28:12.829Z,3.80
2022-08-07T13:30:52.370Z,3.33
2022-08-07T13:34:33.003Z,4.82
2022-08-07T13:36:25.841Z,6.60
2022-08-07T13:39:03.172Z,2.28
2022-08-07T13:41:47.613Z,1.88
2022-08-07T13:44:26.151Z,2.78
2022-08-07T13:46:59.618Z,7.85
2022-08-07T13:50:32.722Z,3.55
2022-08-07T13:52:33.552Z,2.17
2022-08-07T13:55:11.196Z,2.80
2022-08-07T13:58:02.090Z,4.70
2022-08-07T14:00:50.593Z,3.28
2022-08-07T14:03:29.602Z,2.10
2022-08-07T14:06:14.980Z,3.38
2022-08-07T14:08:53.532Z,5.43
2022-08-07T14:11:24.375Z,5.95
2022-08-07T14:14:04.820Z,3.85
2022-08-07T14:16:38.148Z,1.60
2022-08-07T14:20:38.304Z,2.05
2022-08-07T14:22:11.406Z,3.05
2022-08-07T14:24:43.103Z,1.48
2022-08-07T14:30:11.984Z,5.22
2022-08-07T14:32:45.608Z,5.43
2022-08-07T14:35:43.259Z,4.63
2022-08-07T14:38:26.296Z,4.55
2022-08-07T14:41:03.989Z,4.20
2022-08-07T14:46:31.529Z,4.60
2022-08-07T14:52:04.226Z,4.43
2022-08-07T14:57:57.952Z,3.80
2022-08-07T15:03:19.810Z,6.97
2022-08-07T15:05:55.326Z,2.92
2022-08-07T15:08:47.592Z,5.78
2022-08-07T15:11:50.814Z,5.50
2022-08-07T15:14:17.677Z,7.13
2022-08-07T15:16:54.992Z,3.67
2022-08-07T15:20:30.363Z,7.90
2022-08-07T15:25:19.315Z,2.65
2022-08-07T15:28:32.246Z,4.13
2022-08-07T15:31:04.839Z,2.33
2022-08-07T15:33:33.555Z,4.93
2022-08-07T15:36:07.751Z,4.07
2022-08-07T15:44:23.709Z,3.22
2022-08-07T15:47:08.627Z,3.92
2022-08-07T15:50:03.769Z,2.58
2022-08-07T15:52:30.687Z,4.03
2022-08-07T15:55:02.460Z,7.03
2022-08-07T15:57:47.705Z,2.35
2022-08-07T16:00:31.115Z,4.80
2022-08-07T16:03:05.475Z,4.28
2022-08-07T16:05:34.745Z,3.17
2022-08-07T16:08:31.754Z,2.55
2022-08-07T16:11:03.473Z,4.40
2022-08-07T16:13:58.502Z,4.85
2022-08-07T16:16:48.541Z,1.58
2022-08-07T16:19:41.820Z,4.05
2022-08-07T16:22:36.144Z,3.90
2022-08-07T16:25:54.070Z,3.65
2022-08-07T16:30:07.033Z,6.10
2022-08-07T16:31:51.899Z,8.60
2022-08-07T16:34:26.667Z,2.92
2022-08-07T16:38:04.177Z,3.40
2022-08-07T16:40:35.187Z,2.97
2022-08-07T16:43:15.050Z,4.50
2022-08-07T16:47:06.758Z,2.28
2022-08-07T16:50:28.883Z,2.85
2022-08-07T16:52:55.577Z,7.25
2022-08-07T16:55:47.459Z,4.45
2022-08-07T16:58:25.619Z,3.70
2022-08-07T17:01:24.687Z,5.53
2022-08-07T17:04:12.459Z,3.92
2022-08-07T17:07:02.748Z,4.82
2022-08-07T17:10:05.868Z,3.95
2022-08-07T17:12:44.407Z,3.75
2022-08-07T17:15:20.763Z,4.90
2022-08-07T17:17:58.751Z,4.05
2022-08-07T17:20:32.937Z,3.95
2022-08-07T17:23:11.605Z,4.63
2022-08-07T17:25:54.449Z,6.43
2022-08-07T17:28:33.244Z,4.90
2022-08-07T17:31:15.725Z,5.15
2022-08-07T17:34:18.009Z,7.67
2022-08-07T17:36:58.325Z,5.30
2022-08-07T17:39:58.221Z,3.58
2022-08-07T17:42:59.593Z,5.70
2022-08-07T17:45:35.563Z,4.37
2022-08-07T17:48:10.337Z,5.13
2022-08-07T17:50:54.397Z,7.00
2022-08-07T17:54:01.272Z,4.87
2022-08-07T17:56:33.541Z,3.40
2022-08-07T17:59:10.441Z,6.07
2022-08-07T18:01:56.746Z,4.33
2022-08-07T18:04:34.163Z,3.47
2022-08-07T18:07:20.521Z,6.67
2022-08-07T18:10:06.596Z,6.23
2022-08-07T18:12:52.489Z,9.60
2022-08-07T18:15:32.877Z,6.90
2022-08-07T18:18:46.371Z,7.47
2022-08-07T18:21:37.403Z,9.43
2022-08-07T18:24:01.636Z,5.83
2022-08-07T18:26:49.347Z,4.50
2022-08-07T18:30:07.970Z,6.77
2022-08-07T18:32:25.633Z,4.00
2022-08-07T18:35:15.947Z,4.93
2022-08-07T18:38:57.300Z,11.47
2022-08-07T18:41:17.040Z,5.27
2022-08-07T18:43:58.998Z,4.23
2022-08-07T18:46:43.309Z,5.37
2022-08-07T18:50:31.361Z,4.07
2022-08-07T18:52:52.794Z,6.53
2022-08-07T18:55:40.858Z,3.57
2022-08-07T18:58:26.594Z,3.57
2022-08-07T19:01:06.866Z,7.07
2022-08-07T19:03:45.850Z,5.60
2022-08-07T19:06:21.397Z,9.30
2022-08-07T19:09:09.580Z,7.00
2022-08-07T19:12:18.073Z,10.60
2022-08-07T19:14:59.507Z,4.47
2022-08-07T19:17:59.080Z,5.17
2022-08-07T19:20:36.676Z,7.67
2022-08-07T19:23:19.403Z,5.80
2022-08-07T19:26:25.142Z,4.53
2022-08-07T19:30:58.340Z,9.00
2022-08-07T19:32:08.324Z,4.17
2022-08-07T19:34:47.921Z,8.40
2022-08-07T19:37:18.801Z,4.77
2022-08-07T19:40:01.557Z,8.07
2022-08-07T19:42:40.505Z,9.67
2022-08-07T19:46:04.999Z,5.47
2022-08-07T19:48:06.648Z,10.00
2022-08-07T19:50:53.237Z,9.17
2022-08-07T19:54:31.666Z,7.13
2022-08-07T19:57:56.760Z,9.37
2022-08-07T19:59:03.430Z,9.40
2022-08-07T20:01:52.787Z,7.20
2022-08-07T20:04:31.937Z,7.10
2022-08-07T20:07:10.130Z,7.17
2022-08-07T20:10:36.903Z,7.17
2022-08-07T20:12:38.030Z,10.00
2022-08-07T20:15:18.731Z,5.93
2022-08-07T20:18:01.410Z,9.03
2022-08-07T20:20:34.190Z,6.27
2022-08-07T20:23:22.768Z,7.07
2022-08-07T20:26:03.331Z,10.83
2022-08-07T20:28:32.344Z,5.57
2022-08-07T20:31:02.729Z,7.70
2022-08-07T20:33:37.581Z,7.77
2022-08-07T20:36:09.807Z,6.90
2022-08-07T20:38:53.713Z,6.80
2022-08-07T20:41:34.010Z,8.33
2022-08-07T20:44:12.522Z,11.63
2022-08-07T20:46:45.444Z,7.87
2022-08-07T20:50:00.200Z,7.03
2022-08-07T20:52:16.711Z,7.47
2022-08-07T20:54:53.851Z,9.33
2022-08-07T20:57:28.096Z,10.23
2022-08-07T21:00:04.440Z,8.07
2022-08-07T21:02:57.626Z,10.23
2022-08-07T21:05:54.656Z,7.27
2022-08-07T21:08:35.045Z,8.30
2022-08-07T21:11:10.912Z,7.70
2022-08-07T21:13:43.720Z,7.83
2022-08-07T21:16:29.160Z,9.93
2022-08-07T21:19:00.643Z,9.27
2022-08-07T21:21:33.207Z,10.23
2022-08-07T21:24:25.133Z,13.03
2022-08-07T21:27:00.074Z,6.63
2022-08-07T21:29:33.661Z,12.40
2022-08-07T21:32:48.745Z,7.90
2022-08-07T21:35:11.347Z,8.77
2022-08-07T21:37:58.971Z,8.03
2022-08-07T21:40:38.182Z,12.63
2022-08-07T21:43:10.608Z,8.07
2022-08-07T21:46:05.219Z,9.17
2022-08-07T21:48:42.413Z,9.03
2022-08-07T21:51:25.399Z,13.93
2022-08-07T21:53:59.668Z,9.93
2022-08-07T21:56:42.393Z,9.27
2022-08-07T22:00:04.578Z,9.60
2022-08-07T22:02:38.646Z,12.93
2022-08-07T22:05:22.204Z,12.50
2022-08-07T22:08:02.781Z,12.43
2022-08-07T22:10:35.457Z,10.87
2022-08-07T22:13:09.075Z,10.97
2022-08-07T22:16:42.597Z,8.97
2022-08-07T22:18:38.410Z,8.70
2022-08-07T22:21:15.868Z,11.10
2022-08-07T22:23:56.306Z,11.17
2022-08-07T22:26:29.406Z,8.13
2022-08-07T22:29:08.770Z,9.23
2022-08-07T22:32:03.384Z,12.20
2022-08-07T22:34:41.638Z,17.43
2022-08-07T22:37:23.735Z,13.13
2022-08-07T22:40:05.105Z,12.17
2022-08-07T22:42:36.129Z,13.77
2022-08-07T22:45:11.104Z,10.50
2022-08-07T22:48:13.735Z,12.27
2022-08-07T22:51:22.291Z,13.20
2022-08-07T22:54:06.377Z,10.87
2022-08-07T22:56:57.955Z,11.87
2022-08-07T22:59:55.585Z,11.93
2022-08-07T23:02:32.238Z,10.80
2022-08-07T23:06:08.404Z,9.07
2022-08-07T23:08:30.332Z,10.17
2022-08-07T23:11:12.876Z,10.07
2022-08-07T23:14:15.033Z,16.30
2022-08-07T23:16:58.474Z,8.87
2022-08-07T23:19:58.543Z,13.37
2022-08-07T23:22:43.244Z,16.00
2022-08-07T23:25:28.624Z,10.70
2022-08-07T23:28:21.817Z,8.83
2022-08-07T23:31:13.890Z,11.20
2022-08-07T23:34:35.434Z,13.13
2022-08-07T23:37:19.816Z,10.63
2022-08-07T23:40:05.158Z,14.90
2022-08-07T23:42:53.389Z,9.23
2022-08-07T23:46:01.707Z,10.17
2022-08-07T23:48:52.920Z,13.37
2022-08-07T23:52:58.711Z,10.77
2022-08-07T23:54:36.128Z,11.47
2022-08-07T23:57:20.133Z,10.67
